Atlanta, Michigan
Current Conditions -  °F | °C
As of 1:53 AM on Sunday 26 Oct 2014 (Local Time) from KGLR Reporting Station
Clear Clear  
Wind Chill: 42°   Ceiling: Unl
Heat Index: 47°   Visibility: 10mi
Dew Point: 32°   Wind: 12mph
Humidity: 56%   Direction: 300°WNW
Pressure: 29.78"   Gusts: 20mph
Location:  45°N, 84.14°W
Report Text: KGLR 260553Z AUTO 30010G17KT 10SM CLR 08/00 A2978 RMK AO2 SLP090 T00830000 10100 20083 53007
Loading
Personal Weather Stations






























Interactive Weather Map
Tropical Storm Tracking
New forecast layout! Learn more

10-Day Weather Forecast

Advertisements
Track Severe Weather on mobile